sensor_id;sensor_type;location;lat;lon;timestamp;pressure;altitude;pressure_sealevel;temperature;humidity
7337;BME280;54510;42.016;23.098;2023-04-05T00:02:13;-21314.50;;;6.54;59.52
7337;BME280;54510;42.016;23.098;2023-04-05T00:04:42;-21311.72;;;6.44;59.96
7337;BME280;54510;42.016;23.098;2023-04-05T00:07:14;-21310.47;;;6.39;60.43
7337;BME280;54510;42.016;23.098;2023-04-05T00:09:41;-21305.31;;;6.20;60.87
7337;BME280;54510;42.016;23.098;2023-04-05T00:12:06;-21309.06;;;6.34;60.40
7337;BME280;54510;42.016;23.098;2023-04-05T00:14:32;-21309.91;;;6.37;59.99
7337;BME280;54510;42.016;23.098;2023-04-05T00:16:57;-21299.59;;;6.00;61.14
7337;BME280;54510;42.016;23.098;2023-04-05T00:19:22;-21308.78;;;6.33;60.53
7337;BME280;54510;42.016;23.098;2023-04-05T00:21:47;-21309.50;;;6.35;59.97
7337;BME280;54510;42.016;23.098;2023-04-05T00:24:13;-21306.84;;;6.26;60.14
7337;BME280;54510;42.016;23.098;2023-04-05T00:26:39;-21320.50;;;6.75;59.02
7337;BME280;54510;42.016;23.098;2023-04-05T00:29:06;-21328.44;;;7.04;58.33
7337;BME280;54510;42.016;23.098;2023-04-05T00:31:32;-21314.38;;;6.53;59.14
7337;BME280;54510;42.016;23.098;2023-04-05T00:33:57;-21318.00;;;6.66;59.41
7337;BME280;54510;42.016;23.098;2023-04-05T00:36:22;-21318.41;;;6.68;59.54
7337;BME280;54510;42.016;23.098;2023-04-05T00:38:47;-21305.16;;;6.20;60.29
7337;BME280;54510;42.016;23.098;2023-04-05T00:41:15;-21318.28;;;6.67;59.06
7337;BME280;54510;42.016;23.098;2023-04-05T00:43:41;-21303.22;;;6.13;60.79
7337;BME280;54510;42.016;23.098;2023-04-05T00:46:06;-21299.72;;;6.00;61.67
7337;BME280;54510;42.016;23.098;2023-04-05T00:48:32;-21301.13;;;6.05;61.32
7337;BME280;54510;42.016;23.098;2023-04-05T00:50:58;-21311.44;;;6.43;60.55
7337;BME280;54510;42.016;23.098;2023-04-05T00:53:23;-21300.97;;;6.05;61.53
7337;BME280;54510;42.016;23.098;2023-04-05T00:55:49;-21296.09;;;5.87;61.89
7337;BME280;54510;42.016;23.098;2023-04-05T00:58:16;-21302.38;;;6.10;61.16
7337;BME280;54510;42.016;23.098;2023-04-05T01:00:51;-21296.78;;;5.89;61.55
7337;BME280;54510;42.016;23.098;2023-04-05T01:03:18;-21306.28;;;6.24;61.54
7337;BME280;54510;42.016;23.098;2023-04-05T01:05:54;-21309.06;;;6.34;60.17
7337;BME280;54510;42.016;23.098;2023-04-05T01:11:18;-21296.78;;;5.89;61.76
7337;BME280;54510;42.016;23.098;2023-04-05T01:13:46;-21299.44;;;5.99;61.37
7337;BME280;54510;42.016;23.098;2023-04-05T01:16:11;-21298.31;;;5.95;61.42
7337;BME280;54510;42.016;23.098;2023-04-05T01:18:37;-21303.22;;;6.13;61.61
7337;BME280;54510;42.016;23.098;2023-04-05T01:21:09;-21306.69;;;6.25;60.77
7337;BME280;54510;42.016;23.098;2023-04-05T01:23:49;-21300.00;;;6.01;61.50
7337;BME280;54510;42.016;23.098;2023-04-05T01:27:02;-21301.94;;;6.08;61.16
7337;BME280;54510;42.016;23.098;2023-04-05T01:36:49;-21291.19;;;5.69;61.97
7337;BME280;54510;42.016;23.098;2023-04-05T01:39:16;-21307.69;;;6.29;60.82
7337;BME280;54510;42.016;23.098;2023-04-05T01:41:44;-21299.31;;;5.99;60.85
7337;BME280;54510;42.016;23.098;2023-04-05T01:44:09;-21294.84;;;5.82;61.93
7337;BME280;54510;42.016;23.098;2023-04-05T01:46:34;-21298.47;;;5.95;61.96
7337;BME280;54510;42.016;23.098;2023-04-05T01:49:00;-21305.44;;;6.21;60.86
7337;BME280;54510;42.016;23.098;2023-04-05T01:51:26;-21301.94;;;6.08;61.39
7337;BME280;54510;42.016;23.098;2023-04-05T01:53:52;-21297.78;;;5.93;61.53
7337;BME280;54510;42.016;23.098;2023-04-05T01:56:17;-21307.69;;;6.29;61.04
7337;BME280;54510;42.016;23.098;2023-04-05T01:58:42;-21306.97;;;6.26;60.99
7337;BME280;54510;42.016;23.098;2023-04-05T02:01:07;-21303.50;;;6.14;60.67
7337;BME280;54510;42.016;23.098;2023-04-05T02:03:33;-21311.84;;;6.44;61.03
7337;BME280;54510;42.016;23.098;2023-04-05T02:05:58;-21302.09;;;6.09;61.58
7337;BME280;54510;42.016;23.098;2023-04-05T02:08:23;-21304.03;;;6.16;61.14
7337;BME280;54510;42.016;23.098;2023-04-05T02:10:51;-21296.78;;;5.89;61.90
7337;BME280;54510;42.016;23.098;2023-04-05T02:13:16;-21301.53;;;6.07;62.15
7337;BME280;54510;42.016;23.098;2023-04-05T02:15:46;-21293.56;;;5.78;62.23
7337;BME280;54510;42.016;23.098;2023-04-05T02:18:11;-21293.44;;;5.77;62.38
7337;BME280;54510;42.016;23.098;2023-04-05T02:20:37;-21306.84;;;6.26;61.30
7337;BME280;54510;42.016;23.098;2023-04-05T02:23:02;-21294.56;;;5.81;62.33
7337;BME280;54510;42.016;23.098;2023-04-05T02:25:27;-21298.19;;;5.94;63.37
7337;BME280;54510;42.016;23.098;2023-04-05T02:27:53;-21311.31;;;6.42;61.93
7337;BME280;54510;42.016;23.098;2023-04-05T02:30:18;-21296.22;;;5.87;62.15
7337;BME280;54510;42.016;23.098;2023-04-05T02:32:43;-21298.47;;;5.95;63.22
7337;BME280;54510;42.016;23.098;2023-04-05T02:35:10;-21297.34;;;5.91;62.07
7337;BME280;54510;42.016;23.098;2023-04-05T02:37:36;-21310.88;;;6.41;61.34
7337;BME280;54510;42.016;23.098;2023-04-05T02:40:01;-21299.16;;;5.98;62.02
7337;BME280;54510;42.016;23.098;2023-04-05T02:42:29;-21293.03;;;5.76;62.92
7337;BME280;54510;42.016;23.098;2023-04-05T02:44:55;-21285.91;;;5.50;63.61
7337;BME280;54510;42.016;23.098;2023-04-05T02:47:20;-21293.44;;;5.77;63.54
7337;BME280;54510;42.016;23.098;2023-04-05T02:49:48;-21292.31;;;5.73;63.25
7337;BME280;54510;42.016;23.098;2023-04-05T02:52:14;-21298.19;;;5.94;63.28
7337;BME280;54510;42.016;23.098;2023-04-05T02:54:39;-21297.91;;;5.93;62.60
7337;BME280;54510;42.016;23.098;2023-04-05T02:57:05;-21297.22;;;5.91;62.81
7337;BME280;54510;42.016;23.098;2023-04-05T02:59:30;-21292.88;;;5.75;63.28
7337;BME280;54510;42.016;23.098;2023-04-05T03:01:55;-21294.56;;;5.81;63.59
7337;BME280;54510;42.016;23.098;2023-04-05T03:04:21;-21300.97;;;6.05;63.15
7337;BME280;54510;42.016;23.098;2023-04-05T03:06:46;-21307.69;;;6.29;62.53
7337;BME280;54510;42.016;23.098;2023-04-05T03:09:13;-21304.03;;;6.16;62.70
7337;BME280;54510;42.016;23.098;2023-04-05T03:11:39;-21292.59;;;5.74;63.73
7337;BME280;54510;42.016;23.098;2023-04-05T03:14:04;-21294.41;;;5.81;64.03
7337;BME280;54510;42.016;23.098;2023-04-05T03:16:29;-21283.38;;;5.41;65.70
7337;BME280;54510;42.016;23.098;2023-04-05T03:18:55;-21293.28;;;5.77;64.95
7337;BME280;54510;42.016;23.098;2023-04-05T03:21:21;-21287.28;;;5.55;64.97
7337;BME280;54510;42.016;23.098;2023-04-05T03:23:46;-21279.19;;;5.26;66.01
7337;BME280;54510;42.016;23.098;2023-04-05T03:26:12;-21291.91;;;5.72;65.71
7337;BME280;54510;42.016;23.098;2023-04-05T03:28:38;-21283.94;;;5.43;66.51
7337;BME280;54510;42.016;23.098;2023-04-05T03:31:08;-21294.97;;;5.83;66.00
7337;BME280;54510;42.016;23.098;2023-04-05T03:33:33;-21295.25;;;5.84;65.36
7337;BME280;54510;42.016;23.098;2023-04-05T03:35:58;-21294.84;;;5.82;65.24
7337;BME280;54510;42.016;23.098;2023-04-05T03:38:23;-21284.91;;;5.46;66.73
7337;BME280;54510;42.016;23.098;2023-04-05T03:40:49;-21275.16;;;5.11;67.87
7337;BME280;54510;42.016;23.098;2023-04-05T03:43:14;-21287.84;;;5.57;66.85
7337;BME280;54510;42.016;23.098;2023-04-05T03:45:40;-21291.34;;;5.70;65.79
7337;BME280;54510;42.016;23.098;2023-04-05T03:48:05;-21282.00;;;5.36;67.37
7337;BME280;54510;42.016;23.098;2023-04-05T03:50:31;-21285.06;;;5.47;67.13
7337;BME280;54510;42.016;23.098;2023-04-05T03:52:56;-21284.38;;;5.44;66.63
7337;BME280;54510;42.016;23.098;2023-04-05T03:55:21;-21279.75;;;5.28;67.23
7337;BME280;54510;42.016;23.098;2023-04-05T03:57:47;-21283.09;;;5.40;66.28
7337;BME280;54510;42.016;23.098;2023-04-05T04:00:12;-21278.06;;;5.22;67.43
7337;BME280;54510;42.016;23.098;2023-04-05T04:02:41;-21273.47;;;5.05;67.79
7337;BME280;54510;42.016;23.098;2023-04-05T04:05:07;-21282.53;;;5.38;67.41
7337;BME280;54510;42.016;23.098;2023-04-05T04:07:32;-21285.34;;;5.48;66.47
7337;BME280;54510;42.016;23.098;2023-04-05T04:09:57;-21296.09;;;5.87;65.49
7337;BME280;54510;42.016;23.098;2023-04-05T04:12:23;-21289.09;;;5.62;65.98
7337;BME280;54510;42.016;23.098;2023-04-05T04:14:48;-21291.75;;;5.71;66.23
7337;BME280;54510;42.016;23.098;2023-04-05T04:17:24;-21287.44;;;5.55;66.23
7337;BME280;54510;42.016;23.098;2023-04-05T04:19:50;-21292.03;;;5.72;66.11
7337;BME280;54510;42.016;23.098;2023-04-05T04:22:15;-21300.28;;;6.02;64.80
7337;BME280;54510;42.016;23.098;2023-04-05T04:24:44;-21296.78;;;5.89;64.98
7337;BME280;54510;42.016;23.098;2023-04-05T04:27:10;-21294.00;;;5.79;64.98
7337;BME280;54510;42.016;23.098;2023-04-05T04:29:35;-21289.25;;;5.62;65.83
7337;BME280;54510;42.016;23.098;2023-04-05T04:32:02;-21289.38;;;5.63;65.27
7337;BME280;54510;42.016;23.098;2023-04-05T04:34:31;-21288.69;;;5.60;65.53
7337;BME280;54510;42.016;23.098;2023-04-05T04:36:58;-21278.34;;;5.23;66.99
7337;BME280;54510;42.016;23.098;2023-04-05T04:39:26;-21288.13;;;5.58;66.15
7337;BME280;54510;42.016;23.098;2023-04-05T04:41:51;-21295.94;;;5.86;65.13
7337;BME280;54510;42.016;23.098;2023-04-05T04:44:18;-21295.81;;;5.86;64.82
7337;BME280;54510;42.016;23.098;2023-04-05T04:46:52;-21300.41;;;6.03;64.28
7337;BME280;54510;42.016;23.098;2023-04-05T04:49:19;-21290.78;;;5.68;64.81
7337;BME280;54510;42.016;23.098;2023-04-05T04:51:45;-21292.88;;;5.75;64.70
7337;BME280;54510;42.016;23.098;2023-04-05T04:54:10;-21300.28;;;6.02;64.47
7337;BME280;54510;42.016;23.098;2023-04-05T04:56:37;-21303.75;;;6.15;64.03
7337;BME280;54510;42.016;23.098;2023-04-05T04:59:02;-21286.59;;;5.52;65.97
7337;BME280;54510;42.016;23.098;2023-04-05T05:01:27;-21292.75;;;5.75;65.96
7337;BME280;54510;42.016;23.098;2023-04-05T05:03:53;-21293.44;;;5.77;65.55
7337;BME280;54510;42.016;23.098;2023-04-05T05:06:18;-21289.81;;;5.64;65.45
7337;BME280;54510;42.016;23.098;2023-04-05T05:08:43;-21288.00;;;5.57;65.81
7337;BME280;54510;42.016;23.098;2023-04-05T05:11:10;-21288.13;;;5.58;65.80
7337;BME280;54510;42.016;23.098;2023-04-05T05:13:35;-21305.16;;;6.20;64.52
7337;BME280;54510;42.016;23.098;2023-04-05T05:16:00;-21293.28;;;5.77;64.79
7337;BME280;54510;42.016;23.098;2023-04-05T05:18:26;-21300.41;;;6.03;64.99
7337;BME280;54510;42.016;23.098;2023-04-05T05:20:51;-21288.41;;;5.59;65.97
7337;BME280;54510;42.016;23.098;2023-04-05T05:23:17;-21291.75;;;5.71;65.53
7337;BME280;54510;42.016;23.098;2023-04-05T05:25:42;-21295.66;;;5.85;64.36
7337;BME280;54510;42.016;23.098;2023-04-05T05:28:07;-21299.31;;;5.99;64.34
7337;BME280;54510;42.016;23.098;2023-04-05T05:30:33;-21306.13;;;6.23;64.04
7337;BME280;54510;42.016;23.098;2023-04-05T05:32:58;-21312.97;;;6.48;63.45
7337;BME280;54510;42.016;23.098;2023-04-05T05:35:24;-21307.13;;;6.27;62.87
7337;BME280;54510;42.016;23.098;2023-04-05T05:37:49;-21302.94;;;6.12;63.30
7337;BME280;54510;42.016;23.098;2023-04-05T05:40:14;-21297.06;;;5.90;63.86
7337;BME280;54510;42.016;23.098;2023-04-05T05:42:40;-21294.41;;;5.81;64.43
7337;BME280;54510;42.016;23.098;2023-04-05T05:45:05;-21296.38;;;5.88;64.31
7337;BME280;54510;42.016;23.098;2023-04-05T05:47:31;-21304.03;;;6.16;63.39
7337;BME280;54510;42.016;23.098;2023-04-05T05:49:56;-21303.75;;;6.15;62.90
7337;BME280;54510;42.016;23.098;2023-04-05T05:52:22;-21298.31;;;5.95;63.76
7337;BME280;54510;42.016;23.098;2023-04-05T05:54:47;-21296.94;;;5.90;63.73
7337;BME280;54510;42.016;23.098;2023-04-05T05:57:13;-21306.56;;;6.25;62.80
7337;BME280;54510;42.016;23.098;2023-04-05T05:59:38;-21302.66;;;6.11;62.63
7337;BME280;54510;42.016;23.098;2023-04-05T06:02:03;-21301.81;;;6.08;62.72
7337;BME280;54510;42.016;23.098;2023-04-05T06:04:29;-21311.72;;;6.44;62.37
7337;BME280;54510;42.016;23.098;2023-04-05T06:06:54;-21319.53;;;6.72;60.95
7337;BME280;54510;42.016;23.098;2023-04-05T06:09:20;-21317.44;;;6.64;61.19
7337;BME280;54510;42.016;23.098;2023-04-05T06:11:49;-21331.66;;;7.16;59.69
7337;BME280;54510;42.016;23.098;2023-04-05T06:14:15;-21322.31;;;6.82;58.96
7337;BME280;54510;42.016;23.098;2023-04-05T06:16:40;-21306.00;;;6.23;60.57
7337;BME280;54510;42.016;23.098;2023-04-05T06:19:05;-21305.16;;;6.20;61.05
7337;BME280;54510;42.016;23.098;2023-04-05T06:21:30;-21312.41;;;6.46;61.46
7337;BME280;54510;42.016;23.098;2023-04-05T06:23:56;-21316.88;;;6.62;61.00
7337;BME280;54510;42.016;23.098;2023-04-05T06:26:22;-21326.34;;;6.97;59.99
7337;BME280;54510;42.016;23.098;2023-04-05T06:28:51;-21331.25;;;7.14;59.22
7337;BME280;54510;42.016;23.098;2023-04-05T06:31:18;-21313.66;;;6.51;60.51
7337;BME280;54510;42.016;23.098;2023-04-05T06:33:44;-21305.31;;;6.20;60.93
7337;BME280;54510;42.016;23.098;2023-04-05T06:36:09;-21325.53;;;6.94;59.99
7337;BME280;54510;42.016;23.098;2023-04-05T06:38:35;-21339.59;;;7.45;58.68
7337;BME280;54510;42.016;23.098;2023-04-05T06:41:00;-21319.38;;;6.71;58.48
7337;BME280;54510;42.016;23.098;2023-04-05T06:43:26;-21332.78;;;7.20;57.87
7337;BME280;54510;42.016;23.098;2023-04-05T06:45:54;-21329.97;;;7.10;58.12
7337;BME280;54510;42.016;23.098;2023-04-05T06:48:19;-21313.53;;;6.50;59.06
7337;BME280;54510;42.016;23.098;2023-04-05T06:50:45;-21317.84;;;6.66;59.52
7337;BME280;54510;42.016;23.098;2023-04-05T06:53:10;-21327.75;;;7.02;58.22
7337;BME280;54510;42.016;23.098;2023-04-05T06:55:38;-21324.13;;;6.89;58.53
7337;BME280;54510;42.016;23.098;2023-04-05T06:58:03;-21336.97;;;7.35;57.29
7337;BME280;54510;42.016;23.098;2023-04-05T07:00:28;-21332.22;;;7.18;57.45
7337;BME280;54510;42.016;23.098;2023-04-05T07:02:54;-21332.91;;;7.21;56.67
7337;BME280;54510;42.016;23.098;2023-04-05T07:05:19;-21329.56;;;7.08;57.05
7337;BME280;54510;42.016;23.098;2023-04-05T07:07:44;-21331.38;;;7.15;57.60
7337;BME280;54510;42.016;23.098;2023-04-05T07:10:12;-21346.72;;;7.71;56.16
7337;BME280;54510;42.016;23.098;2023-04-05T07:12:38;-21335.97;;;7.32;56.44
7337;BME280;54510;42.016;23.098;2023-04-05T07:15:03;-21346.28;;;7.69;56.77
7337;BME280;54510;42.016;23.098;2023-04-05T07:17:29;-21357.00;;;8.08;55.62
7337;BME280;54510;42.016;23.098;2023-04-05T07:19:54;-21357.84;;;8.11;55.60
7337;BME280;54510;42.016;23.098;2023-04-05T07:22:19;-21333.75;;;7.24;57.74
7337;BME280;54510;42.016;23.098;2023-04-05T07:24:45;-21330.41;;;7.11;57.68
7337;BME280;54510;42.016;23.098;2023-04-05T07:27:10;-21339.47;;;7.44;57.50
7337;BME280;54510;42.016;23.098;2023-04-05T07:29:36;-21347.53;;;7.74;54.63
7337;BME280;54510;42.016;23.098;2023-04-05T07:32:04;-21340.03;;;7.46;55.80
7337;BME280;54510;42.016;23.098;2023-04-05T07:34:30;-21349.50;;;7.81;56.49
7337;BME280;54510;42.016;23.098;2023-04-05T07:36:55;-21342.53;;;7.56;55.96
7337;BME280;54510;42.016;23.098;2023-04-05T07:39:20;-21343.63;;;7.60;55.26
7337;BME280;54510;42.016;23.098;2023-04-05T07:41:46;-21336.69;;;7.34;56.27
7337;BME280;54510;42.016;23.098;2023-04-05T07:44:11;-21347.41;;;7.73;55.39
7337;BME280;54510;42.016;23.098;2023-04-05T07:46:36;-21341.00;;;7.50;55.46
7337;BME280;54510;42.016;23.098;2023-04-05T07:49:03;-21344.63;;;7.63;55.23
7337;BME280;54510;42.016;23.098;2023-04-05T07:51:28;-21350.06;;;7.83;54.88
7337;BME280;54510;42.016;23.098;2023-04-05T07:53:53;-21351.44;;;7.88;54.13
7337;BME280;54510;42.016;23.098;2023-04-05T07:56:19;-21359.53;;;8.17;53.74
7337;BME280;54510;42.016;23.098;2023-04-05T07:58:45;-21362.44;;;8.28;53.45
7337;BME280;54510;42.016;23.098;2023-04-05T08:01:12;-21357.28;;;8.09;53.62
7337;BME280;54510;42.016;23.098;2023-04-05T08:03:37;-21349.78;;;7.82;52.67
7337;BME280;54510;42.016;23.098;2023-04-05T08:06:13;-21359.38;;;8.17;52.46
7337;BME280;54510;42.016;23.098;2023-04-05T08:08:41;-21367.72;;;8.47;51.91
7337;BME280;54510;42.016;23.098;2023-04-05T08:11:07;-21358.81;;;8.15;51.05
7337;BME280;54510;42.016;23.098;2023-04-05T08:13:32;-21365.38;;;8.39;51.36
7337;BME280;54510;42.016;23.098;2023-04-05T08:15:58;-21359.66;;;8.18;51.34
7337;BME280;54510;42.016;23.098;2023-04-05T08:18:24;-21355.75;;;8.04;52.43
7337;BME280;54510;42.016;23.098;2023-04-05T08:20:50;-21373.03;;;8.66;50.12
7337;BME280;54510;42.016;23.098;2023-04-05T08:23:15;-21362.56;;;8.28;50.88
7337;BME280;54510;42.016;23.098;2023-04-05T08:25:41;-21364.53;;;8.36;50.63
7337;BME280;54510;42.016;23.098;2023-04-05T08:28:06;-21366.34;;;8.42;50.23
7337;BME280;54510;42.016;23.098;2023-04-05T08:30:32;-21352.28;;;7.91;50.62
7337;BME280;54510;42.016;23.098;2023-04-05T08:32:57;-21362.31;;;8.27;50.17
7337;BME280;54510;42.016;23.098;2023-04-05T08:35:22;-21364.25;;;8.35;49.98
7337;BME280;54510;42.016;23.098;2023-04-05T08:37:47;-21368.72;;;8.51;49.91
7337;BME280;54510;42.016;23.098;2023-04-05T08:40:13;-21373.72;;;8.69;48.84
7337;BME280;54510;42.016;23.098;2023-04-05T08:42:41;-21355.47;;;8.03;49.84
7337;BME280;54510;42.016;23.098;2023-04-05T08:45:10;-21375.38;;;8.75;49.21
7337;BME280;54510;42.016;23.098;2023-04-05T08:47:38;-21381.50;;;8.97;48.44
7337;BME280;54510;42.016;23.098;2023-04-05T08:50:04;-21372.03;;;8.63;49.20
7337;BME280;54510;42.016;23.098;2023-04-05T08:52:30;-21381.78;;;8.98;48.19
7337;BME280;54510;42.016;23.098;2023-04-05T08:54:56;-21375.81;;;8.77;48.50
7337;BME280;54510;42.016;23.098;2023-04-05T08:57:24;-21379.56;;;8.90;48.53
7337;BME280;54510;42.016;23.098;2023-04-05T08:59:51;-21386.94;;;9.17;47.35
7337;BME280;54510;42.016;23.098;2023-04-05T09:02:17;-21366.75;;;8.44;48.63
7337;BME280;54510;42.016;23.098;2023-04-05T09:04:43;-21386.22;;;9.15;47.37
7337;BME280;54510;42.016;23.098;2023-04-05T09:07:09;-21386.66;;;9.16;47.35
7337;BME280;54510;42.016;23.098;2023-04-05T09:09:36;-21394.28;;;9.44;46.80
7337;BME280;54510;42.016;23.098;2023-04-05T09:12:02;-21402.22;;;9.73;46.83
7337;BME280;54510;42.016;23.098;2023-04-05T09:14:29;-21412.78;;;10.11;46.39
7337;BME280;54510;42.016;23.098;2023-04-05T09:16:54;-21406.53;;;9.88;46.68
7337;BME280;54510;42.016;23.098;2023-04-05T09:19:19;-21427.09;;;10.63;44.86
7337;BME280;54510;42.016;23.098;2023-04-05T09:21:57;-21384.16;;;9.07;47.46
7337;BME280;54510;42.016;23.098;2023-04-05T09:24:34;-21404.72;;;9.82;47.24
7337;BME280;54510;42.016;23.098;2023-04-05T09:27:07;-21431.25;;;10.79;46.20
7337;BME280;54510;42.016;23.098;2023-04-05T09:29:33;-21389.16;;;9.25;48.08
7337;BME280;54510;42.016;23.098;2023-04-05T09:32:01;-21409.59;;;10.00;46.65
7337;BME280;54510;42.016;23.098;2023-04-05T09:34:29;-21409.44;;;9.99;47.94
7337;BME280;54510;42.016;23.098;2023-04-05T09:36:55;-21413.88;;;10.15;46.82
7337;BME280;54510;42.016;23.098;2023-04-05T09:39:20;-21403.19;;;9.76;46.76
7337;BME280;54510;42.016;23.098;2023-04-05T09:47:17;-21410.97;;;10.05;46.78
7337;BME280;54510;42.016;23.098;2023-04-05T09:49:42;-21390.53;;;9.30;47.97
7337;BME280;54510;42.016;23.098;2023-04-05T09:52:20;-21406.25;;;9.87;47.46
7337;BME280;54510;42.016;23.098;2023-04-05T09:54:46;-21386.50;;;9.16;48.12
7337;BME280;54510;42.016;23.098;2023-04-05T09:57:11;-21414.59;;;10.18;47.65
7337;BME280;54510;42.016;23.098;2023-04-05T09:59:39;-21413.34;;;10.13;47.06
7337;BME280;54510;42.016;23.098;2023-04-05T10:02:05;-21399.84;;;9.64;47.56
7337;BME280;54510;42.016;23.098;2023-04-05T10:04:40;-21412.09;;;10.09;47.54
7337;BME280;54510;42.016;23.098;2023-04-05T10:07:07;-21410.84;;;10.04;46.85
7337;BME280;54510;42.016;23.098;2023-04-05T10:09:33;-21420.28;;;10.39;46.73
7337;BME280;54510;42.016;23.098;2023-04-05T10:11:58;-21432.78;;;10.84;45.33
7337;BME280;54510;42.016;23.098;2023-04-05T10:14:25;-21404.16;;;9.80;47.48
7337;BME280;54510;42.016;23.098;2023-04-05T10:16:52;-21417.38;;;10.28;47.51
7337;BME280;54510;42.016;23.098;2023-04-05T10:19:28;-21426.81;;;10.62;47.02
7337;BME280;54510;42.016;23.098;2023-04-05T10:21:58;-21404.88;;;9.82;48.21
7337;BME280;54510;42.016;23.098;2023-04-05T10:29:47;-21420.41;;;10.39;47.71
7337;BME280;54510;42.016;23.098;2023-04-05T10:32:29;-21429.03;;;10.71;46.03
7337;BME280;54510;42.016;23.098;2023-04-05T10:35:08;-21435.81;;;10.95;45.53
7337;BME280;54510;42.016;23.098;2023-04-05T10:37:39;-21452.88;;;11.58;44.03
7337;BME280;54510;42.016;23.098;2023-04-05T10:40:07;-21450.25;;;11.48;43.39
7337;BME280;54510;42.016;23.098;2023-04-05T10:42:43;-21448.16;;;11.40;43.57
7337;BME280;54510;42.016;23.098;2023-04-05T10:45:14;-21450.66;;;11.49;43.19
7337;BME280;54510;42.016;23.098;2023-04-05T10:47:48;-21450.53;;;11.49;43.44
7337;BME280;54510;42.016;23.098;2023-04-05T10:50:19;-21447.06;;;11.36;44.67
7337;BME280;54510;42.016;23.098;2023-04-05T10:52:45;-21432.09;;;10.82;45.65
7337;BME280;54510;42.016;23.098;2023-04-05T10:55:11;-21451.50;;;11.53;45.34
7337;BME280;54510;42.016;23.098;2023-04-05T10:57:36;-21464.53;;;12.00;43.85
7337;BME280;54510;42.016;23.098;2023-04-05T11:00:02;-21470.09;;;12.20;43.20
7337;BME280;54510;42.016;23.098;2023-04-05T11:02:28;-21451.09;;;11.51;44.01
7337;BME280;54510;42.016;23.098;2023-04-05T11:04:54;-21452.19;;;11.55;44.14
7337;BME280;54510;42.016;23.098;2023-04-05T11:07:23;-21472.84;;;12.31;43.04
7337;BME280;54510;42.016;23.098;2023-04-05T11:09:49;-21444.28;;;11.26;44.00
7337;BME280;54510;42.016;23.098;2023-04-05T11:12:16;-21441.94;;;11.18;44.11
7337;BME280;54510;42.016;23.098;2023-04-05T11:14:42;-21476.03;;;12.42;42.37
7337;BME280;54510;42.016;23.098;2023-04-05T11:17:24;-21489.47;;;12.91;41.26
7337;BME280;54510;42.016;23.098;2023-04-05T11:19:50;-21465.09;;;12.02;42.58
7337;BME280;54510;42.016;23.098;2023-04-05T11:22:26;-21437.91;;;11.03;44.35
7337;BME280;54510;42.016;23.098;2023-04-05T11:24:53;-21450.66;;;11.49;44.38
7337;BME280;54510;42.016;23.098;2023-04-05T11:27:30;-21474.78;;;12.38;42.63
7337;BME280;54510;42.016;23.098;2023-04-05T11:29:59;-21457.59;;;11.75;43.52
7337;BME280;54510;42.016;23.098;2023-04-05T11:32:41;-21456.50;;;11.71;43.28
7337;BME280;54510;42.016;23.098;2023-04-05T11:35:11;-21460.38;;;11.85;42.83
7337;BME280;54510;42.016;23.098;2023-04-05T11:40:30;-21458.72;;;11.79;43.76
7337;BME280;54510;42.016;23.098;2023-04-05T11:43:00;-21474.50;;;12.37;41.78
7337;BME280;54510;42.016;23.098;2023-04-05T11:45:25;-21460.66;;;11.86;42.84
7337;BME280;54510;42.016;23.098;2023-04-05T11:47:51;-21461.50;;;11.89;43.00
7337;BME280;54510;42.016;23.098;2023-04-05T11:50:16;-21467.88;;;12.12;42.14
7337;BME280;54510;42.016;23.098;2023-04-05T11:52:41;-21466.34;;;12.07;43.86
7337;BME280;54510;42.016;23.098;2023-04-05T11:55:06;-21481.16;;;12.61;41.71
7337;BME280;54510;42.016;23.098;2023-04-05T11:57:32;-21449.56;;;11.45;43.82
7337;BME280;54510;42.016;23.098;2023-04-05T11:59:59;-21454.13;;;11.62;42.83
7337;BME280;54510;42.016;23.098;2023-04-05T12:02:25;-21471.59;;;12.26;42.39
7337;BME280;54510;42.016;23.098;2023-04-05T12:04:54;-21465.91;;;12.05;43.03
7337;BME280;54510;42.016;23.098;2023-04-05T12:07:22;-21490.31;;;12.94;40.99
7337;BME280;54510;42.016;23.098;2023-04-05T12:09:59;-21490.16;;;12.94;39.70
7337;BME280;54510;42.016;23.098;2023-04-05T12:12:35;-21479.50;;;12.55;41.76
7337;BME280;54510;42.016;23.098;2023-04-05T12:15:02;-21481.56;;;12.62;41.91
7337;BME280;54510;42.016;23.098;2023-04-05T12:17:46;-21468.00;;;12.13;42.29
7337;BME280;54510;42.016;23.098;2023-04-05T12:20:14;-21456.50;;;11.71;43.21
7337;BME280;54510;42.016;23.098;2023-04-05T12:22:40;-21442.06;;;11.18;44.22
7337;BME280;54510;42.016;23.098;2023-04-05T12:25:06;-21457.06;;;11.73;43.36
7337;BME280;54510;42.016;23.098;2023-04-05T12:27:32;-21474.09;;;12.35;42.14
7337;BME280;54510;42.016;23.098;2023-04-05T12:30:16;-21458.44;;;11.78;43.59
7337;BME280;54510;42.016;23.098;2023-04-05T12:32:46;-21467.03;;;12.09;42.03
7337;BME280;54510;42.016;23.098;2023-04-05T12:35:15;-21464.53;;;12.00;42.03
7337;BME280;54510;42.016;23.098;2023-04-05T12:37:41;-21442.47;;;11.20;43.54
7337;BME280;54510;42.016;23.098;2023-04-05T12:40:07;-21475.63;;;12.41;41.79
7337;BME280;54510;42.016;23.098;2023-04-05T12:42:32;-21480.31;;;12.58;41.22
7337;BME280;54510;42.016;23.098;2023-04-05T12:45:04;-21483.38;;;12.69;41.50
7337;BME280;54510;42.016;23.098;2023-04-05T12:47:33;-21509.53;;;13.65;39.71
7337;BME280;54510;42.016;23.098;2023-04-05T12:50:12;-21498.59;;;13.25;39.78
7337;BME280;54510;42.016;23.098;2023-04-05T12:52:38;-21474.09;;;12.35;41.53
7337;BME280;54510;42.016;23.098;2023-04-05T12:55:03;-21475.75;;;12.41;41.18
7337;BME280;54510;42.016;23.098;2023-04-05T12:57:29;-21456.34;;;11.70;41.96
7337;BME280;54510;42.016;23.098;2023-04-05T12:59:55;-21474.78;;;12.38;41.76
7337;BME280;54510;42.016;23.098;2023-04-05T13:02:20;-21490.56;;;12.95;40.72
7337;BME280;54510;42.016;23.098;2023-04-05T13:04:45;-21484.06;;;12.72;41.12
7337;BME280;54510;42.016;23.098;2023-04-05T13:07:11;-21467.59;;;12.11;41.29
7337;BME280;54510;42.016;23.098;2023-04-05T13:09:36;-21472.28;;;12.28;41.18
7337;BME280;54510;42.016;23.098;2023-04-05T13:12:01;-21472.44;;;12.29;41.60
7337;BME280;54510;42.016;23.098;2023-04-05T13:14:26;-21454.41;;;11.63;42.90
7337;BME280;54510;42.016;23.098;2023-04-05T13:16:52;-21475.63;;;12.41;42.03
7337;BME280;54510;42.016;23.098;2023-04-05T13:19:17;-21472.56;;;12.30;41.86
7337;BME280;54510;42.016;23.098;2023-04-05T13:21:42;-21443.88;;;11.25;43.57